createdAt,value
2017-08-03T00:00:39.442Z,0
2017-08-03T00:01:52.059Z,0
2017-08-03T00:03:04.307Z,0
2017-08-03T00:04:16.855Z,0
2017-08-03T00:05:29.133Z,0
2017-08-03T00:06:41.443Z,0
2017-08-03T00:07:54.019Z,0
2017-08-03T00:09:06.610Z,0
2017-08-03T00:10:19.205Z,0
2017-08-03T00:11:31.808Z,0
2017-08-03T00:12:44.439Z,0
2017-08-03T00:13:57.046Z,0
2017-08-03T00:15:09.656Z,0
2017-08-03T00:16:21.900Z,0
2017-08-03T00:17:34.592Z,0
2017-08-03T00:18:46.569Z,0
2017-08-03T00:19:59.151Z,0
2017-08-03T00:21:11.397Z,0
2017-08-03T00:22:23.665Z,0
2017-08-03T00:23:35.648Z,0
2017-08-03T00:24:48.257Z,0
2017-08-03T00:26:00.858Z,0
2017-08-03T00:27:12.799Z,0
2017-08-03T00:28:25.373Z,0
2017-08-03T00:29:37.689Z,0
2017-08-03T00:30:50.260Z,0
2017-08-03T00:32:02.885Z,0
2017-08-03T00:33:15.456Z,0
2017-08-03T00:34:28.057Z,0
2017-08-03T00:35:40.644Z,0
2017-08-03T00:36:52.595Z,0
2017-08-03T00:38:04.886Z,0
2017-08-03T00:39:17.444Z,0
2017-08-03T00:40:29.803Z,0
2017-08-03T00:41:42.350Z,0
2017-08-03T00:42:54.951Z,0
2017-08-03T00:44:07.179Z,0
2017-08-03T00:45:19.821Z,0
2017-08-03T00:46:32.458Z,0
2017-08-03T00:47:45.035Z,0
2017-08-03T00:48:57.631Z,0
2017-08-03T00:50:09.933Z,0
2017-08-03T00:51:22.547Z,0
2017-08-03T00:52:35.138Z,0
2017-08-03T00:53:47.726Z,0
2017-08-03T00:55:00.335Z,0
2017-08-03T00:56:12.293Z,0
2017-08-03T00:57:24.504Z,0
2017-08-03T00:58:37.095Z,0
2017-08-03T00:59:49.393Z,0
2017-08-03T01:01:01.709Z,0
2017-08-03T01:02:14.022Z,0
2017-08-03T01:03:26.625Z,0
2017-08-03T01:04:38.947Z,0
2017-08-03T01:05:51.222Z,0
2017-08-03T01:07:03.447Z,0
2017-08-03T01:08:15.710Z,0
2017-08-03T01:09:27.681Z,0
2017-08-03T01:10:39.917Z,0
2017-08-03T01:11:52.528Z,0
2017-08-03T01:13:05.095Z,0
2017-08-03T01:14:17.738Z,0
2017-08-03T01:15:30.371Z,0
2017-08-03T01:16:42.991Z,0
2017-08-03T01:17:55.652Z,0
2017-08-03T01:19:08.177Z,0
2017-08-03T01:20:20.744Z,0
2017-08-03T01:21:33.032Z,0
2017-08-03T01:22:45.002Z,0
2017-08-03T01:23:57.514Z,0
2017-08-03T01:25:09.791Z,0
2017-08-03T01:26:22.409Z,0
2017-08-03T01:27:35.294Z,0
2017-08-03T01:28:47.582Z,0
2017-08-03T01:30:00.188Z,0
2017-08-03T01:31:12.843Z,0
2017-08-03T01:32:25.402Z,0
2017-08-03T01:33:37.724Z,0
2017-08-03T01:34:50.000Z,0
2017-08-03T01:36:02.600Z,0
2017-08-03T01:37:15.193Z,0
2017-08-03T01:38:27.799Z,0
2017-08-03T01:39:40.389Z,0
2017-08-03T01:40:52.998Z,0
2017-08-03T01:42:05.306Z,0
2017-08-03T01:43:17.901Z,0
2017-08-03T01:44:30.461Z,0
2017-08-03T01:45:43.021Z,0
2017-08-03T01:46:55.628Z,0
2017-08-03T01:48:07.874Z,0
2017-08-03T01:49:20.506Z,0
2017-08-03T01:50:32.546Z,0
2017-08-03T01:51:44.849Z,0
2017-08-03T01:52:57.085Z,0
2017-08-03T01:54:09.654Z,0
2017-08-03T01:55:22.236Z,0
2017-08-03T01:56:34.888Z,0
2017-08-03T01:57:47.468Z,0
2017-08-03T01:58:59.664Z,0
2017-08-03T02:00:11.944Z,0
2017-08-03T02:01:24.553Z,0
2017-08-03T02:02:36.873Z,0
2017-08-03T02:03:49.477Z,0
2017-08-03T02:05:01.468Z,0
2017-08-03T02:06:13.731Z,0
2017-08-03T02:07:26.035Z,0
2017-08-03T02:08:38.592Z,0
2017-08-03T02:09:51.174Z,0
2017-08-03T02:11:03.783Z,0
2017-08-03T02:12:16.028Z,0
2017-08-03T02:13:28.350Z,0
2017-08-03T02:14:40.674Z,0
2017-08-03T02:15:53.036Z,0
2017-08-03T02:17:05.664Z,0
2017-08-03T02:18:17.983Z,0
2017-08-03T02:19:30.617Z,0
2017-08-03T02:20:43.256Z,0
2017-08-03T02:21:55.737Z,0
2017-08-03T02:23:08.317Z,0
2017-08-03T02:24:20.652Z,0
2017-08-03T02:25:32.954Z,0
2017-08-03T02:26:44.961Z,0
2017-08-03T02:27:57.598Z,0
2017-08-03T02:29:10.160Z,0
2017-08-03T02:30:22.734Z,0
2017-08-03T02:31:34.978Z,0
2017-08-03T02:32:47.516Z,0
2017-08-03T02:34:00.159Z,0
2017-08-03T02:35:12.741Z,0
2017-08-03T02:36:24.991Z,0
2017-08-03T02:37:37.594Z,0
2017-08-03T02:38:50.203Z,0
2017-08-03T02:40:02.768Z,0
2017-08-03T02:41:15.097Z,0
2017-08-03T02:42:27.672Z,0
2017-08-03T02:43:40.268Z,0
2017-08-03T02:44:52.859Z,0
2017-08-03T02:46:05.165Z,0
2017-08-03T02:47:17.803Z,0
2017-08-03T02:48:30.444Z,0
2017-08-03T02:49:42.744Z,0
2017-08-03T02:50:55.298Z,0
2017-08-03T02:52:07.965Z,0
2017-08-03T02:53:20.221Z,4
2017-08-03T02:54:32.823Z,4
2017-08-03T02:55:45.106Z,4
2017-08-03T02:56:57.673Z,4
2017-08-03T02:58:09.665Z,4
2017-08-03T02:59:21.901Z,8
2017-08-03T03:00:34.480Z,4
2017-08-03T03:01:47.024Z,8
2017-08-03T03:02:59.678Z,8
2017-08-03T03:04:12.269Z,12
2017-08-03T03:05:24.563Z,12
2017-08-03T03:06:37.148Z,16
2017-08-03T03:07:49.742Z,16
2017-08-03T03:09:02.399Z,20
2017-08-03T03:10:14.979Z,24
2017-08-03T03:11:27.573Z,28
2017-08-03T03:12:39.920Z,32
2017-08-03T03:13:52.534Z,36
2017-08-03T03:15:05.123Z,44
2017-08-03T03:16:18.037Z,44
2017-08-03T03:17:30.378Z,52
2017-08-03T03:18:42.892Z,52
2017-08-03T03:19:55.390Z,64
2017-08-03T03:21:07.910Z,68
2017-08-03T03:22:20.136Z,76
2017-08-03T03:23:32.739Z,88
2017-08-03T03:24:45.396Z,96
2017-08-03T03:25:57.954Z,108
2017-08-03T03:27:10.248Z,116
2017-08-03T03:28:22.860Z,128
2017-08-03T03:29:35.434Z,136
2017-08-03T03:30:48.066Z,152
2017-08-03T03:32:00.653Z,168
2017-08-03T03:33:13.273Z,184
2017-08-03T03:34:25.864Z,192
2017-08-03T03:35:38.161Z,212
2017-08-03T03:36:50.438Z,240
2017-08-03T03:38:02.439Z,276
2017-08-03T03:39:14.715Z,324
2017-08-03T03:40:27.098Z,388
2017-08-03T03:41:39.051Z,456
2017-08-03T03:42:51.679Z,512
2017-08-03T03:44:04.210Z,556
2017-08-03T03:45:16.779Z,592
2017-08-03T03:46:29.089Z,648
2017-08-03T03:47:41.700Z,708
2017-08-03T03:48:54.312Z,704
2017-08-03T03:50:06.264Z,628
2017-08-03T03:51:18.584Z,540
2017-08-03T03:52:31.190Z,452
2017-08-03T03:53:43.547Z,408
2017-08-03T03:54:55.824Z,492
2017-08-03T03:56:08.108Z,652
2017-08-03T03:57:20.686Z,752
2017-08-03T03:58:32.944Z,756
2017-08-03T03:59:45.510Z,716
2017-08-03T04:00:58.125Z,688
2017-08-03T04:02:10.421Z,672
2017-08-03T04:03:23.074Z,684
2017-08-03T04:04:35.076Z,820
2017-08-03T04:05:47.684Z,1064
2017-08-03T04:06:59.908Z,1324
2017-08-03T04:08:12.440Z,1528
2017-08-03T04:09:24.797Z,1716
2017-08-03T04:10:37.053Z,1896
2017-08-03T04:11:49.295Z,2020
2017-08-03T04:13:01.863Z,2040
2017-08-03T04:14:14.486Z,1884
2017-08-03T04:15:26.768Z,1756
2017-08-03T04:16:39.060Z,1728
2017-08-03T04:17:51.648Z,1848
2017-08-03T04:19:04.239Z,1916
2017-08-03T04:20:16.746Z,1892
2017-08-03T04:21:29.584Z,1708
2017-08-03T04:22:41.957Z,1576
2017-08-03T04:23:54.246Z,1648
2017-08-03T04:25:06.539Z,1912
2017-08-03T04:26:19.120Z,2300
2017-08-03T04:27:31.446Z,2776
2017-08-03T04:28:43.706Z,3288
2017-08-03T04:29:56.257Z,3632
2017-08-03T04:31:08.584Z,3632
2017-08-03T04:32:20.912Z,3548
2017-08-03T04:33:33.451Z,3528
2017-08-03T04:34:46.046Z,3496
2017-08-03T04:35:58.630Z,3388
2017-08-03T04:37:10.640Z,3200
2017-08-03T04:38:22.984Z,3016
2017-08-03T04:39:35.523Z,2904
2017-08-03T04:40:47.803Z,3020
2017-08-03T04:42:00.360Z,3332
2017-08-03T04:43:12.938Z,3708
2017-08-03T04:44:25.552Z,4076
2017-08-03T04:45:37.799Z,4368
2017-08-03T04:46:50.437Z,4548
2017-08-03T04:48:02.448Z,4532
2017-08-03T04:49:15.030Z,4276
2017-08-03T04:50:27.332Z,3896
2017-08-03T04:51:39.604Z,3476
2017-08-03T04:52:52.181Z,3044
2017-08-03T04:54:04.495Z,2644
2017-08-03T04:55:16.834Z,2288
2017-08-03T04:56:29.162Z,2052
2017-08-03T04:57:41.710Z,1904
2017-08-03T04:58:54.280Z,1848
2017-08-03T05:00:06.839Z,1920
2017-08-03T05:01:19.507Z,2156
2017-08-03T05:02:31.808Z,2568
2017-08-03T05:03:44.091Z,3140
2017-08-03T05:04:56.364Z,3928
2017-08-03T05:06:09.030Z,4988
2017-08-03T05:07:21.580Z,6276
2017-08-03T05:08:34.174Z,7600
2017-08-03T05:09:46.434Z,8668
2017-08-03T05:10:58.738Z,9168
2017-08-03T05:12:11.314Z,8828
2017-08-03T05:13:23.880Z,7748
2017-08-03T05:14:36.168Z,6288
2017-08-03T05:15:48.396Z,4892
2017-08-03T05:17:00.593Z,3940
2017-08-03T05:18:12.591Z,3536
2017-08-03T05:19:25.146Z,3536
2017-08-03T05:20:37.786Z,3980
2017-08-03T05:21:50.412Z,4744
2017-08-03T05:23:02.678Z,5628
2017-08-03T05:24:15.269Z,6156
2017-08-03T05:25:27.824Z,6196
2017-08-03T05:26:40.125Z,6380
2017-08-03T05:27:52.717Z,6568
2017-08-03T05:29:05.377Z,6640
2017-08-03T05:30:17.634Z,6528
2017-08-03T05:31:29.928Z,6656
2017-08-03T05:32:42.546Z,7288
2017-08-03T05:33:54.486Z,7864
2017-08-03T05:35:06.988Z,8260
2017-08-03T05:36:19.594Z,8400
2017-08-03T05:37:32.246Z,8472
2017-08-03T05:38:44.860Z,8856
2017-08-03T05:39:57.140Z,9780
2017-08-03T05:41:09.436Z,11176
2017-08-03T05:42:22.018Z,12644
2017-08-03T05:43:34.933Z,13552
2017-08-03T05:44:46.948Z,13516
2017-08-03T05:45:58.944Z,12440
2017-08-03T05:47:11.247Z,10892
2017-08-03T05:48:23.518Z,9260
2017-08-03T05:49:35.862Z,8324
2017-08-03T05:50:48.414Z,8508
2017-08-03T05:52:00.675Z,9480
2017-08-03T05:53:12.956Z,10448
2017-08-03T05:54:25.558Z,11996
2017-08-03T05:55:38.197Z,13800
2017-08-03T05:56:50.483Z,15708
2017-08-03T05:58:03.046Z,17184
2017-08-03T05:59:15.903Z,17792
2017-08-03T06:00:28.502Z,17952
2017-08-03T06:01:41.152Z,17856
2017-08-03T06:02:53.791Z,17984
2017-08-03T06:04:06.357Z,17152
2017-08-03T06:05:18.952Z,15060
2017-08-03T06:06:31.256Z,14304
2017-08-03T06:07:43.549Z,13404
2017-08-03T06:08:55.541Z,11780
2017-08-03T06:10:07.824Z,10480
2017-08-03T06:11:20.445Z,10008
2017-08-03T06:12:33.111Z,9908
2017-08-03T06:13:45.451Z,10184
2017-08-03T06:14:58.006Z,10968
2017-08-03T06:16:09.968Z,12104
2017-08-03T06:17:22.591Z,13212
2017-08-03T06:18:35.244Z,13512
2017-08-03T06:19:47.516Z,12936
2017-08-03T06:21:00.104Z,12844
2017-08-03T06:22:12.649Z,13940
2017-08-03T06:23:25.270Z,15832
2017-08-03T06:24:37.946Z,18272
2017-08-03T06:25:50.546Z,24288
2017-08-03T06:27:02.538Z,37376
2017-08-03T06:28:14.516Z,31904
2017-08-03T06:29:26.853Z,30304
2017-08-03T06:30:39.437Z,26944
2017-08-03T06:31:51.990Z,25536
2017-08-03T06:33:04.586Z,28320
2017-08-03T06:34:17.184Z,22848
2017-08-03T06:35:29.188Z,32544
2017-08-03T06:36:41.772Z,31296
2017-08-03T06:37:53.458Z,18272
2017-08-03T06:39:05.814Z,17728
2017-08-03T06:40:18.460Z,15936
2017-08-03T06:41:30.787Z,15564
2017-08-03T06:42:43.683Z,15928
2017-08-03T06:43:56.004Z,16676
2017-08-03T06:45:08.038Z,17376
2017-08-03T06:46:20.676Z,17696
2017-08-03T06:47:33.262Z,17952
2017-08-03T06:48:45.839Z,18368
2017-08-03T06:49:58.470Z,18176
2017-08-03T06:51:11.075Z,17092
2017-08-03T06:52:23.394Z,16008
2017-08-03T06:53:35.372Z,15328
2017-08-03T06:54:47.965Z,15452
2017-08-03T06:56:00.208Z,15704
2017-08-03T06:57:12.785Z,16016
2017-08-03T06:58:25.360Z,16380
2017-08-03T06:59:38.012Z,16588
2017-08-03T07:00:50.646Z,16584
2017-08-03T07:02:02.394Z,16512
2017-08-03T07:03:14.965Z,15944
2017-08-03T07:04:27.634Z,14940
2017-08-03T07:05:39.929Z,14480
2017-08-03T07:06:52.526Z,15056
2017-08-03T07:08:04.468Z,15908
2017-08-03T07:09:16.729Z,16800
2017-08-03T07:10:29.283Z,17472
2017-08-03T07:11:41.604Z,17760
2017-08-03T07:12:54.192Z,18112
2017-08-03T07:14:06.762Z,18592
2017-08-03T07:15:19.366Z,19520
2017-08-03T07:16:31.916Z,20512
2017-08-03T07:17:43.915Z,21120
2017-08-03T07:18:56.209Z,20416
2017-08-03T07:20:08.485Z,18560
2017-08-03T07:21:21.056Z,16240
2017-08-03T07:22:33.691Z,14452
2017-08-03T07:23:45.988Z,13336
2017-08-03T07:24:57.670Z,12800
2017-08-03T07:26:09.958Z,12908
2017-08-03T07:27:22.552Z,13588
2017-08-03T07:28:35.209Z,14264
2017-08-03T07:29:47.824Z,14408
2017-08-03T07:31:00.115Z,14276
2017-08-03T07:32:12.408Z,14212
2017-08-03T07:33:24.988Z,14532
2017-08-03T07:34:37.589Z,15532
2017-08-03T07:35:49.907Z,17888
2017-08-03T07:37:02.192Z,19584
2017-08-03T07:38:13.614Z,20320
2017-08-03T07:39:26.212Z,21152
2017-08-03T07:40:38.483Z,23936
2017-08-03T07:41:51.027Z,35040
2017-08-03T07:43:02.684Z,20224
2017-08-03T07:44:14.947Z,17760
2017-08-03T07:45:27.169Z,15572
2017-08-03T07:46:39.769Z,13948
2017-08-03T07:47:52.063Z,12424
2017-08-03T07:49:04.682Z,10996
2017-08-03T07:50:16.649Z,9996
2017-08-03T07:51:29.205Z,9700
2017-08-03T07:52:41.801Z,10700
2017-08-03T07:53:54.437Z,13544
2017-08-03T07:55:06.680Z,17920
2017-08-03T07:56:18.956Z,21568
2017-08-03T07:57:31.474Z,23936
2017-08-03T07:58:44.051Z,24992
2017-08-03T07:59:56.298Z,20736
2017-08-03T08:01:08.868Z,16656
2017-08-03T08:02:21.188Z,14344
2017-08-03T08:03:33.481Z,13384
2017-08-03T08:04:45.801Z,14732
2017-08-03T08:05:58.057Z,16084
2017-08-03T08:07:10.389Z,14096
2017-08-03T08:08:22.362Z,10504
2017-08-03T08:09:34.994Z,10100
2017-08-03T08:10:47.639Z,14220
2017-08-03T08:11:59.917Z,18752
2017-08-03T08:13:12.194Z,20736
2017-08-03T08:14:24.467Z,20320
2017-08-03T08:15:36.745Z,18976
2017-08-03T08:16:49.408Z,17824
2017-08-03T08:18:01.956Z,17172
2017-08-03T08:19:14.542Z,16888
2017-08-03T08:20:27.146Z,17536
2017-08-03T08:21:39.427Z,18336
2017-08-03T08:22:51.117Z,17312
2017-08-03T08:24:02.502Z,17856
2017-08-03T08:25:14.779Z,18400
2017-08-03T08:26:27.341Z,18336
2017-08-03T08:27:39.601Z,17568
2017-08-03T08:28:51.592Z,17632
2017-08-03T08:30:03.570Z,17792
2017-08-03T08:31:15.983Z,16308
2017-08-03T08:32:28.586Z,14912
2017-08-03T08:33:41.169Z,13048
2017-08-03T08:34:52.884Z,10856
2017-08-03T08:36:05.474Z,10316
2017-08-03T08:37:18.015Z,11100
2017-08-03T08:38:30.327Z,12380
2017-08-03T08:39:41.717Z,13648
2017-08-03T08:40:53.738Z,15080
2017-08-03T08:42:06.422Z,16112
2017-08-03T08:43:19.027Z,16196
2017-08-03T08:44:31.683Z,15412
2017-08-03T08:45:44.236Z,13868
2017-08-03T08:46:56.460Z,11936
2017-08-03T08:48:09.039Z,10352
2017-08-03T08:49:21.398Z,8956
2017-08-03T08:50:33.984Z,8008
2017-08-03T08:51:46.290Z,8296
2017-08-03T08:52:58.876Z,9068
2017-08-03T08:54:11.514Z,9116
2017-08-03T08:55:24.121Z,8588
2017-08-03T08:56:36.729Z,8640
2017-08-03T08:57:49.076Z,8904
2017-08-03T08:59:01.641Z,9616
2017-08-03T09:00:14.298Z,10112
2017-08-03T09:01:26.958Z,10584
2017-08-03T09:02:38.933Z,10424
2017-08-03T09:03:50.930Z,9792
2017-08-03T09:05:02.886Z,9588
2017-08-03T09:06:15.152Z,10076
2017-08-03T09:07:27.090Z,10988
2017-08-03T09:08:39.682Z,11744
2017-08-03T09:09:52.237Z,12720
2017-08-03T09:11:04.861Z,13884
2017-08-03T09:12:17.132Z,15028
2017-08-03T09:13:29.442Z,15444
2017-08-03T09:14:41.790Z,14944
2017-08-03T09:15:54.100Z,14380
2017-08-03T09:17:06.666Z,14160
2017-08-03T09:18:18.692Z,13716
2017-08-03T09:19:30.934Z,13436
2017-08-03T09:20:42.942Z,13436
2017-08-03T09:21:55.223Z,13716
2017-08-03T09:23:07.517Z,13924
2017-08-03T09:24:20.091Z,13632
2017-08-03T09:25:32.737Z,13284
2017-08-03T09:26:45.409Z,12904
2017-08-03T09:27:57.642Z,12684
2017-08-03T09:29:10.245Z,12172
2017-08-03T09:30:22.238Z,11724
2017-08-03T09:31:34.838Z,11760
2017-08-03T09:32:47.077Z,11764
2017-08-03T09:33:59.358Z,12024
2017-08-03T09:35:11.995Z,12620
2017-08-03T09:36:24.594Z,13816
2017-08-03T09:37:36.866Z,15704
2017-08-03T09:38:49.189Z,16716
2017-08-03T09:40:01.453Z,17888
2017-08-03T09:41:13.804Z,19232
2017-08-03T09:42:26.330Z,19680
2017-08-03T09:43:38.914Z,19200
2017-08-03T09:44:51.497Z,18656
2017-08-03T09:46:03.458Z,18528
2017-08-03T09:47:16.078Z,18784
2017-08-03T09:48:28.348Z,19072
2017-08-03T09:49:40.592Z,18720
2017-08-03T09:50:52.569Z,17192
2017-08-03T09:52:04.842Z,15760
2017-08-03T09:53:16.874Z,14668
2017-08-03T09:54:29.457Z,13808
2017-08-03T09:55:42.098Z,12888
2017-08-03T09:56:53.777Z,12080
2017-08-03T09:58:06.083Z,11140
2017-08-03T09:59:18.662Z,10256
2017-08-03T10:00:30.983Z,10028
2017-08-03T10:01:43.605Z,10520
2017-08-03T10:02:55.590Z,11624
2017-08-03T10:04:07.524Z,13264
2017-08-03T10:05:20.166Z,14596
2017-08-03T10:06:32.738Z,15488
2017-08-03T10:07:44.737Z,16224
2017-08-03T10:08:56.678Z,16628
2017-08-03T10:10:08.682Z,16852
2017-08-03T10:11:21.249Z,17472
2017-08-03T10:12:33.867Z,18144
2017-08-03T10:13:46.488Z,18624
2017-08-03T10:14:59.058Z,19200
2017-08-03T10:16:11.580Z,19840
2017-08-03T10:17:24.158Z,20160
2017-08-03T10:18:36.800Z,19968
2017-08-03T10:19:49.354Z,19200
2017-08-03T10:21:01.312Z,18176
2017-08-03T10:22:13.516Z,17164
2017-08-03T10:23:25.815Z,16264
2017-08-03T10:24:38.053Z,15408
2017-08-03T10:25:50.363Z,14904
2017-08-03T10:27:02.455Z,14952
2017-08-03T10:28:15.025Z,15548
2017-08-03T10:29:27.335Z,16108
2017-08-03T10:30:39.684Z,16272
2017-08-03T10:31:52.294Z,16540
2017-08-03T10:33:04.224Z,17600
2017-08-03T10:34:16.821Z,18880
2017-08-03T10:35:29.441Z,19648
2017-08-03T10:36:41.685Z,20416
2017-08-03T10:37:54.213Z,22272
2017-08-03T10:39:06.812Z,25664
2017-08-03T10:40:18.830Z,27904
2017-08-03T10:41:31.721Z,27584
2017-08-03T10:42:43.771Z,29216
2017-08-03T10:43:56.073Z,39328
2017-08-03T10:45:08.056Z,36640
2017-08-03T10:46:20.308Z,38816
2017-08-03T10:47:32.875Z,47200
2017-08-03T10:48:45.457Z,47488
2017-08-03T10:49:57.469Z,44736
2017-08-03T10:51:09.176Z,42048
2017-08-03T10:52:21.539Z,38496
2017-08-03T10:53:34.160Z,33472
2017-08-03T10:54:46.749Z,30176
2017-08-03T10:55:59.051Z,26336
2017-08-03T10:57:11.340Z,23136
2017-08-03T10:58:24.023Z,21184
2017-08-03T10:59:36.334Z,20224
2017-08-03T11:00:48.627Z,19136
2017-08-03T11:02:01.267Z,17260
2017-08-03T11:03:13.821Z,15416
2017-08-03T11:04:26.519Z,14656
2017-08-03T11:05:38.788Z,14924
2017-08-03T11:06:51.308Z,15068
2017-08-03T11:08:03.305Z,14536
2017-08-03T11:09:15.674Z,13848
2017-08-03T11:10:28.249Z,13748
2017-08-03T11:11:40.248Z,13984
2017-08-03T11:12:52.563Z,14392
2017-08-03T11:14:04.834Z,15352
2017-08-03T11:15:17.435Z,17044
2017-08-03T11:16:30.076Z,20224
2017-08-03T11:17:42.348Z,22400
2017-08-03T11:18:54.595Z,24576
2017-08-03T11:20:06.856Z,28096
2017-08-03T11:21:19.516Z,26912
2017-08-03T11:22:31.581Z,23200
2017-08-03T11:23:43.827Z,21376
2017-08-03T11:24:56.105Z,21152
2017-08-03T11:26:08.710Z,21408
2017-08-03T11:27:21.413Z,23488
2017-08-03T11:28:34.020Z,28448
2017-08-03T11:29:46.329Z,27680
2017-08-03T11:30:58.329Z,23776
2017-08-03T11:32:10.926Z,21248
2017-08-03T11:33:23.604Z,20480
2017-08-03T11:34:36.250Z,21536
2017-08-03T11:35:48.559Z,23680
2017-08-03T11:37:00.207Z,23968
2017-08-03T11:38:12.810Z,22880
2017-08-03T11:39:25.473Z,23776
2017-08-03T11:40:38.095Z,25696
2017-08-03T11:41:50.340Z,24576
2017-08-03T11:43:02.574Z,21504
2017-08-03T11:44:14.257Z,18720
2017-08-03T11:45:26.803Z,18656
2017-08-03T11:46:39.376Z,21984
2017-08-03T11:47:51.701Z,26560
2017-08-03T11:49:04.002Z,27968
2017-08-03T11:50:16.622Z,32032
2017-08-03T11:51:29.206Z,33856
2017-08-03T11:52:41.463Z,30496
2017-08-03T11:53:54.055Z,27616
2017-08-03T11:55:06.335Z,27520
2017-08-03T11:56:18.922Z,27520
2017-08-03T11:57:31.529Z,24960
2017-08-03T11:58:43.808Z,24160
2017-08-03T11:59:55.830Z,23296
2017-08-03T12:01:07.798Z,21632
2017-08-03T12:02:20.402Z,20480
2017-08-03T12:03:32.697Z,22144
2017-08-03T12:04:45.354Z,28896
2017-08-03T12:05:57.637Z,35616
2017-08-03T12:07:10.235Z,38048
2017-08-03T12:08:22.784Z,32640
2017-08-03T12:09:35.121Z,27584
2017-08-03T12:10:47.816Z,25024
2017-08-03T12:12:00.387Z,25664
2017-08-03T12:13:12.659Z,29056
2017-08-03T12:14:25.229Z,30848
2017-08-03T12:15:37.917Z,29600
2017-08-03T12:16:50.182Z,30624
2017-08-03T12:18:02.524Z,35360
2017-08-03T12:19:14.763Z,33056
2017-08-03T12:20:27.095Z,26304
2017-08-03T12:21:39.718Z,21472
2017-08-03T12:22:52.305Z,28064
2017-08-03T12:24:04.570Z,32288
2017-08-03T12:25:16.496Z,31392
2017-08-03T12:26:29.114Z,29760
2017-08-03T12:27:41.146Z,27968
2017-08-03T12:28:53.136Z,24288
2017-08-03T12:30:05.200Z,25920
2017-08-03T12:31:17.773Z,26848
2017-08-03T12:32:30.050Z,27552
2017-08-03T12:33:42.667Z,24672
2017-08-03T12:34:54.909Z,21280
2017-08-03T12:36:07.237Z,20704
2017-08-03T12:37:19.279Z,24384
2017-08-03T12:38:31.572Z,26688
2017-08-03T12:39:44.148Z,27040
2017-08-03T12:40:56.640Z,31840
2017-08-03T12:42:09.215Z,35744
2017-08-03T12:43:20.892Z,46656
2017-08-03T12:44:33.576Z,31392
2017-08-03T12:45:45.876Z,23744
2017-08-03T12:46:58.130Z,21920
2017-08-03T12:48:10.440Z,20192
2017-08-03T12:49:23.062Z,16204
2017-08-03T12:50:35.656Z,16900
2017-08-03T12:51:48.227Z,22176
2017-08-03T12:53:00.553Z,23264
2017-08-03T12:54:12.555Z,21568
2017-08-03T12:55:25.214Z,21856
2017-08-03T12:56:36.939Z,23104
2017-08-03T12:57:49.512Z,24064
2017-08-03T12:59:01.478Z,25888
2017-08-03T13:00:13.801Z,28192
2017-08-03T13:01:26.431Z,28928
2017-08-03T13:02:38.789Z,29248
2017-08-03T13:03:51.037Z,32192
2017-08-03T13:05:03.289Z,45568
2017-08-03T13:06:15.315Z,86816
2017-08-03T13:07:27.977Z,42016
2017-08-03T13:08:40.224Z,35968
2017-08-03T13:09:52.793Z,38752
2017-08-03T13:11:05.144Z,28512
2017-08-03T13:12:17.450Z,28960
2017-08-03T13:13:29.679Z,26560
2017-08-03T13:14:41.946Z,75744
2017-08-03T13:15:54.202Z,74816
2017-08-03T13:17:05.910Z,65536
2017-08-03T13:18:18.524Z,46016
2017-08-03T13:19:31.198Z,29280
2017-08-03T13:20:43.829Z,34752
2017-08-03T13:21:55.818Z,25312
2017-08-03T13:23:08.382Z,50400
2017-08-03T13:24:20.700Z,39328
2017-08-03T13:25:33.331Z,30048
2017-08-03T13:26:45.990Z,20960
2017-08-03T13:27:58.257Z,28576
2017-08-03T13:29:10.913Z,17252
2017-08-03T13:30:23.550Z,19680
2017-08-03T13:31:35.592Z,47936
2017-08-03T13:32:47.565Z,24544
2017-08-03T13:34:00.102Z,39392
2017-08-03T13:35:12.106Z,27648
2017-08-03T13:36:24.401Z,40960
2017-08-03T13:37:36.948Z,27392
2017-08-03T13:38:49.219Z,22784
2017-08-03T13:40:01.230Z,23936
2017-08-03T13:41:13.821Z,28032
2017-08-03T13:42:25.793Z,27360
2017-08-03T13:43:38.458Z,24896
2017-08-03T13:44:50.749Z,26304
2017-08-03T13:46:03.376Z,28928
2017-08-03T13:47:15.763Z,31488
2017-08-03T13:48:28.386Z,35584
2017-08-03T13:49:40.686Z,26048
2017-08-03T13:50:52.938Z,30560
2017-08-03T13:52:04.885Z,60608
2017-08-03T13:53:16.600Z,63328
2017-08-03T13:54:28.916Z,39488
2017-08-03T13:55:41.494Z,44608
2017-08-03T13:56:53.506Z,56832
2017-08-03T13:58:05.789Z,52960
2017-08-03T13:59:18.460Z,53568
2017-08-03T14:00:30.745Z,52704
2017-08-03T14:01:43.365Z,50624
2017-08-03T14:02:55.696Z,50400
2017-08-03T14:04:07.981Z,8480
2017-08-03T14:05:20.508Z,53536
2017-08-03T14:06:32.805Z,18944
2017-08-03T14:07:45.409Z,22400
2017-08-03T14:08:57.716Z,18240
2017-08-03T14:10:10.069Z,52480
2017-08-03T14:11:22.669Z,57184
2017-08-03T14:12:35.335Z,22976
2017-08-03T14:13:47.311Z,32640
2017-08-03T14:14:59.897Z,50304
2017-08-03T14:16:12.200Z,46784
2017-08-03T14:17:24.824Z,44192
2017-08-03T14:18:37.411Z,44384
2017-08-03T14:19:49.477Z,42048
2017-08-03T14:21:01.481Z,41376
2017-08-03T14:22:14.072Z,40224
2017-08-03T14:23:26.409Z,7424
2017-08-03T14:24:38.688Z,42496
2017-08-03T14:25:51.035Z,42528
2017-08-03T14:27:03.011Z,38688
2017-08-03T14:28:15.319Z,37024
2017-08-03T14:29:27.921Z,34880
2017-08-03T14:30:40.480Z,34240
2017-08-03T14:31:53.107Z,33248
2017-08-03T14:33:05.334Z,35744
2017-08-03T14:34:17.948Z,34208
2017-08-03T14:35:30.570Z,34592
2017-08-03T14:36:42.658Z,33152
2017-08-03T14:37:55.305Z,9024
2017-08-03T14:39:07.898Z,32960
2017-08-03T14:40:20.210Z,14576
2017-08-03T14:41:32.788Z,9488
2017-08-03T14:42:45.126Z,10080
2017-08-03T14:43:57.083Z,8652
2017-08-03T14:45:09.430Z,7216
2017-08-03T14:46:21.764Z,9140
2017-08-03T14:47:34.402Z,15476
2017-08-03T14:48:46.664Z,14812
2017-08-03T14:49:58.978Z,10912
2017-08-03T14:51:11.654Z,10524
2017-08-03T14:52:24.305Z,9828
2017-08-03T14:53:36.948Z,10124
2017-08-03T14:54:49.516Z,14040
2017-08-03T14:56:02.106Z,19872
2017-08-03T14:57:14.431Z,14908
2017-08-03T14:58:27.013Z,8336
2017-08-03T14:59:39.626Z,7828
2017-08-03T15:00:52.308Z,8520
2017-08-03T15:02:04.617Z,8900
2017-08-03T15:03:17.264Z,9280
2017-08-03T15:04:29.541Z,13348
2017-08-03T15:05:41.860Z,16128
2017-08-03T15:06:54.462Z,12288
2017-08-03T15:08:06.816Z,8100
2017-08-03T15:09:19.137Z,5948
2017-08-03T15:10:31.769Z,4112
2017-08-03T15:11:44.382Z,3228
2017-08-03T15:12:57.003Z,3696
2017-08-03T15:14:09.307Z,4152
2017-08-03T15:15:21.970Z,4100
2017-08-03T15:16:34.563Z,3880
2017-08-03T15:17:46.866Z,3452
2017-08-03T15:18:59.165Z,3096
2017-08-03T15:20:11.857Z,3388
2017-08-03T15:21:24.419Z,3536
2017-08-03T15:22:36.409Z,3320
2017-08-03T15:23:48.942Z,2808
2017-08-03T15:25:01.277Z,2524
2017-08-03T15:26:13.845Z,2360
2017-08-03T15:27:26.426Z,2224
2017-08-03T15:28:38.971Z,1992
2017-08-03T15:29:51.293Z,1560
2017-08-03T15:31:03.649Z,1340
2017-08-03T15:32:16.242Z,1468
2017-08-03T15:33:28.563Z,1952
2017-08-03T15:34:41.112Z,2340
2017-08-03T15:35:53.436Z,2568
2017-08-03T15:37:05.417Z,3456
2017-08-03T15:38:18.013Z,3300
2017-08-03T15:39:30.617Z,2992
2017-08-03T15:40:43.306Z,2612
2017-08-03T15:41:55.806Z,2232
2017-08-03T15:43:08.390Z,2684
2017-08-03T15:44:20.993Z,3572
2017-08-03T15:45:33.615Z,4144
2017-08-03T15:46:46.212Z,4908
2017-08-03T15:47:58.546Z,4244
2017-08-03T15:49:11.180Z,6288
2017-08-03T15:50:23.773Z,6984
2017-08-03T15:51:36.363Z,6124
2017-08-03T15:52:48.928Z,5116
2017-08-03T15:54:01.246Z,7704
2017-08-03T15:55:13.832Z,9068
2017-08-03T15:56:26.408Z,8016
2017-08-03T15:57:38.985Z,8036
2017-08-03T15:58:51.275Z,8468
2017-08-03T16:00:03.558Z,12516
2017-08-03T16:01:15.810Z,13948
2017-08-03T16:02:27.468Z,13844
2017-08-03T16:03:39.753Z,10996
2017-08-03T16:04:52.367Z,10096
2017-08-03T16:06:04.371Z,11280
2017-08-03T16:07:17.172Z,10792